Time;durP1;ratioP1;P1;durP2;ratioP2;P2;SDS_P1;SDS_P2;PMS_P1;PMS_P2;Temp;Humidity;BMP_temperature;BMP_pressure;BME280_temperature;BME280_humidity;BME280_pressure;Samples;Min_cycle;Max_cycle;Signal;HPM_P1;HPM_P2
2023/04/11 00:01:48;;;;;;;42.28;24.90;;;;;;;-144.57;100.00;62443.72;5048538;28;20072;-64
2023/04/11 00:04:15;;;;;;;52.75;28.38;;;;;;;-144.57;100.00;62443.72;5050675;28;20107;-64
2023/04/11 00:06:42;;;;;;;48.38;30.75;;;;;;;-144.57;100.00;62443.72;5050856;28;20418;-65
2023/04/11 00:09:10;;;;;;;46.83;30.42;;;;;;;-144.57;100.00;62443.72;5049465;28;20037;-64
2023/04/11 00:11:36;;;;;;;50.03;29.33;;;;;;;-144.57;100.00;62443.72;5050657;28;20082;-64
2023/04/11 00:14:04;;;;;;;55.78;30.73;;;;;;;-144.57;100.00;62443.72;5050931;28;20127;-64
2023/04/11 00:16:32;;;;;;;66.03;39.88;;;;;;;-144.57;100.00;62443.72;5050633;28;20053;-64
2023/04/11 00:18:59;;;;;;;62.10;39.30;;;;;;;-144.57;100.00;62443.72;5049543;28;20041;-63
2023/04/11 00:21:25;;;;;;;67.13;39.95;;;;;;;-144.57;100.00;62443.72;5049668;28;20045;-64
2023/04/11 00:23:54;;;;;;;72.88;41.85;;;;;;;-144.57;100.00;62443.72;5050429;28;20045;-65
2023/04/11 00:26:20;;;;;;;74.55;46.60;;;;;;;-144.57;100.00;62443.72;5049446;28;20560;-65
2023/04/11 00:28:47;;;;;;;81.78;47.80;;;;;;;-144.57;100.00;62443.72;5033040;28;20056;-65
2023/04/11 00:31:12;;;;;;;79.80;47.65;;;;;;;-144.57;100.00;62443.72;5050416;28;20521;-64
2023/04/11 00:33:38;;;;;;;80.57;49.05;;;;;;;-144.57;100.00;62443.72;5032730;28;20047;-66
2023/04/11 00:36:04;;;;;;;78.85;48.20;;;;;;;-144.57;100.00;62443.72;5048818;28;20056;-64
2023/04/11 00:38:30;;;;;;;71.47;45.20;;;;;;;-144.57;100.00;62443.72;5050635;28;20064;-66
2023/04/11 00:40:56;;;;;;;78.32;42.88;;;;;;;-144.57;100.00;62443.72;5048887;28;20041;-64
2023/04/11 00:43:22;;;;;;;64.78;39.88;;;;;;;-144.57;100.00;62443.72;5051092;28;20517;-63
2023/04/11 00:45:50;;;;;;;68.20;38.70;;;;;;;-144.57;100.00;62443.72;5051217;28;20047;-64
2023/04/11 00:48:16;;;;;;;62.47;36.55;;;;;;;-144.57;100.00;62443.72;5053184;28;20136;-63
2023/04/11 00:50:42;;;;;;;54.85;32.30;;;;;;;-144.57;100.00;62443.72;5052948;28;20045;-65
2023/04/11 00:53:11;;;;;;;49.25;26.00;;;;;;;-144.57;100.00;62443.72;5054368;28;20065;-65
2023/04/11 00:55:36;;;;;;;52.00;30.83;;;;;;;-144.57;100.00;62443.72;5054070;28;20044;-65
2023/04/11 00:58:03;;;;;;;52.85;29.63;;;;;;;-144.57;100.00;62443.72;5052763;28;20045;-65
2023/04/11 01:00:32;;;;;;;50.55;29.83;;;;;;;-144.57;100.00;62443.72;5052505;28;20159;-65
2023/04/11 01:02:58;;;;;;;65.13;37.70;;;;;;;-144.57;100.00;62443.72;5053819;28;20517;-65
2023/04/11 01:05:24;;;;;;;60.30;37.63;;;;;;;-144.57;100.00;62443.72;5052809;28;20299;-65
2023/04/11 01:07:50;;;;;;;66.95;37.05;;;;;;;-144.57;100.00;62443.72;5035826;28;20045;-64
2023/04/11 01:10:16;;;;;;;61.00;37.42;;;;;;;-144.57;100.00;62443.72;5052427;28;20486;-65
2023/04/11 01:12:43;;;;;;;65.78;36.75;;;;;;;-144.57;100.00;62443.72;5035789;28;20044;-66
2023/04/11 01:15:09;;;;;;;55.15;35.83;;;;;;;-144.57;100.00;62443.72;5053680;28;20041;-64
2023/04/11 01:17:35;;;;;;;59.95;36.42;;;;;;;-144.57;100.00;62443.72;5053379;28;20469;-66
2023/04/11 01:20:01;;;;;;;55.90;36.22;;;;;;;-144.57;100.00;62443.72;5052421;28;20041;-65
2023/04/11 01:22:27;;;;;;;58.88;34.95;;;;;;;-144.57;100.00;62443.72;5051938;28;20048;-66
2023/04/11 01:24:53;;;;;;;63.08;38.28;;;;;;;-144.57;100.00;62443.72;5035719;28;20060;-63
2023/04/11 01:27:19;;;;;;;56.30;32.08;;;;;;;-144.57;100.00;62443.72;5053268;28;20516;-64
2023/04/11 01:29:44;;;;;;;63.33;37.95;;;;;;;-144.57;100.00;62443.72;5052180;28;20239;-64
2023/04/11 01:32:10;;;;;;;64.40;35.45;;;;;;;-144.57;100.00;62443.72;5051637;28;20039;-63
2023/04/11 01:34:39;;;;;;;57.47;33.35;;;;;;;-144.57;100.00;62443.72;5053563;28;20053;-64
2023/04/11 01:37:05;;;;;;;54.88;30.60;;;;;;;-144.57;100.00;62443.72;5051862;28;20192;-65
2023/04/11 01:39:30;;;;;;;50.13;28.50;;;;;;;-144.57;100.00;62443.72;5051967;28;20541;-65
2023/04/11 01:41:57;;;;;;;46.60;28.73;;;;;;;-144.57;100.00;62443.72;5053155;28;20043;-66
2023/04/11 01:44:24;;;;;;;46.33;27.83;;;;;;;-144.57;100.00;62443.72;5051929;28;20053;-64
2023/04/11 01:46:50;;;;;;;53.63;28.25;;;;;;;-144.57;100.00;62443.72;5025650;28;20039;-65
2023/04/11 01:49:17;;;;;;;41.53;25.23;;;;;;;-144.57;100.00;62443.72;5052068;28;20044;-65
2023/04/11 01:51:43;;;;;;;50.58;28.17;;;;;;;-144.57;100.00;62443.72;5071032;28;20053;-64
2023/04/11 01:54:09;;;;;;;60.25;32.85;;;;;;;-144.57;100.00;62443.72;5072065;28;20119;-64
2023/04/11 01:56:37;;;;;;;52.63;33.85;;;;;;;-144.57;100.00;62443.72;5072685;28;20028;-65
2023/04/11 01:59:03;;;;;;;63.88;36.53;;;;;;;-144.57;100.00;62443.72;5071561;28;20049;-65
2023/04/11 02:01:29;;;;;;;62.78;39.47;;;;;;;-144.57;100.00;62443.72;5070916;28;20086;-65
2023/04/11 02:03:56;;;;;;;68.50;40.60;;;;;;;-144.57;100.00;62443.72;5072667;28;20041;-65
2023/04/11 02:06:22;;;;;;;69.65;42.90;;;;;;;-144.57;100.00;62443.72;5072084;28;20131;-64
2023/04/11 02:08:48;;;;;;;69.57;43.80;;;;;;;-144.57;100.00;62443.72;5070374;28;20032;-65
2023/04/11 02:11:13;;;;;;;73.10;42.75;;;;;;;-144.57;100.00;62443.72;5071437;28;20123;-63
2023/04/11 02:13:39;;;;;;;91.97;52.25;;;;;;;-144.57;100.00;62443.72;5072110;28;20493;-64
2023/04/11 02:16:06;;;;;;;54.38;34.42;;;;;;;-144.57;100.00;62443.72;5071042;28;20098;-64
2023/04/11 02:18:32;;;;;;;65.57;38.60;;;;;;;-144.57;100.00;62443.72;5072232;28;20434;-65
2023/04/11 02:20:58;;;;;;;71.47;43.90;;;;;;;-144.57;100.00;62443.72;5072856;28;20052;-65
2023/04/11 02:23:26;;;;;;;71.22;42.53;;;;;;;-144.57;100.00;62443.72;5071032;28;20040;-66
2023/04/11 02:25:52;;;;;;;64.82;40.22;;;;;;;-144.57;100.00;62443.72;5071061;28;20044;-65
2023/04/11 02:28:18;;;;;;;67.32;40.13;;;;;;;-144.57;100.00;62443.72;5072042;28;20044;-65
2023/04/11 02:30:44;;;;;;;64.95;38.08;;;;;;;-144.57;100.00;62443.72;5054323;28;20048;-63
2023/04/11 02:33:10;;;;;;;61.63;36.50;;;;;;;-144.57;100.00;62443.72;5034246;28;20102;-66
2023/04/11 02:35:35;;;;;;;64.07;36.40;;;;;;;-144.57;100.00;62443.72;5050719;28;20057;-65
2023/04/11 02:38:01;;;;;;;68.10;40.30;;;;;;;-144.57;100.00;62443.72;5039355;28;20032;-65
2023/04/11 02:40:29;;;;;;;67.28;37.97;;;;;;;-144.57;100.00;62443.72;5070843;28;20094;-65
2023/04/11 02:42:55;;;;;;;71.03;39.42;;;;;;;-144.57;100.00;62443.72;5071987;28;20047;-65
2023/04/11 02:45:20;;;;;;;67.15;38.90;;;;;;;-144.57;100.00;62443.72;5070418;28;20052;-65
2023/04/11 02:47:47;;;;;;;63.95;38.30;;;;;;;-144.57;100.00;62443.72;5070625;28;20032;-66
2023/04/11 02:50:13;;;;;;;65.30;38.22;;;;;;;-144.57;100.00;62443.72;5054050;28;20052;-65
2023/04/11 02:52:46;;;;;;;66.43;39.00;;;;;;;-144.57;100.00;62443.72;5070363;28;20492;-65
2023/04/11 02:55:12;;;;;;;66.40;40.58;;;;;;;-144.57;100.00;62443.72;5054001;28;20036;-66
2023/04/11 02:57:38;;;;;;;69.07;37.20;;;;;;;-144.57;100.00;62443.72;5069914;28;20506;-65
2023/04/11 03:00:08;;;;;;;75.32;38.65;;;;;;;-144.57;100.00;62443.72;5070068;28;20040;-66
2023/04/11 03:02:43;;;;;;;59.78;36.80;;;;;;;-144.57;100.00;62443.72;5053966;28;20076;-65
2023/04/11 03:05:10;;;;;;;60.38;36.67;;;;;;;-144.57;100.00;62443.72;5050480;28;20052;-65
2023/04/11 03:07:39;;;;;;;67.43;38.35;;;;;;;-144.57;100.00;62443.72;5049450;28;20060;-66
2023/04/11 03:10:06;;;;;;;72.03;37.78;;;;;;;-144.57;100.00;62443.72;5065638;28;20052;-65
2023/04/11 03:12:32;;;;;;;62.58;36.00;;;;;;;-144.57;100.00;62443.72;5069718;28;20119;-65
2023/04/11 03:15:02;;;;;;;;;;;;;;;-144.57;100.00;62443.72;5070486;28;20044;-65
2023/04/11 03:17:29;;;;;;;69.38;37.08;;;;;;;-144.57;100.00;62443.72;5070017;28;19927;-65
2023/04/11 03:19:55;;;;;;;65.68;36.78;;;;;;;-144.57;100.00;62443.72;5069867;28;20137;-65
2023/04/11 03:22:23;;;;;;;64.68;36.72;;;;;;;-144.57;100.00;62443.72;5069997;28;20402;-65
2023/04/11 03:24:49;;;;;;;67.10;36.10;;;;;;;-144.57;100.00;62443.72;5069836;28;20195;-66
2023/04/11 03:27:17;;;;;;;61.25;36.05;;;;;;;-144.57;100.00;62443.72;5053326;28;20037;-64
2023/04/11 03:29:44;;;;;;;62.58;34.35;;;;;;;-144.57;100.00;62443.72;5069815;28;20051;-65
2023/04/11 03:32:21;;;;;;;55.13;31.88;;;;;;;-144.57;100.00;62443.72;5071314;28;20079;-66
2023/04/11 03:34:46;;;;;;;58.38;31.65;;;;;;;-144.57;100.00;62443.72;5069708;28;20083;-65
2023/04/11 03:37:13;;;;;;;58.85;32.45;;;;;;;-144.57;100.00;62443.72;5069856;28;20127;-65
2023/04/11 03:39:38;;;;;;;46.17;29.17;;;;;;;-144.57;100.00;62443.72;5069626;28;20515;-64
2023/04/11 03:42:04;;;;;;;49.75;30.20;;;;;;;-144.57;100.00;62443.72;5069424;28;20499;-66
2023/04/11 03:44:31;;;;;;;50.58;31.23;;;;;;;-144.57;100.00;62443.72;5053073;28;20052;-64
2023/04/11 03:46:57;;;;;;;56.55;32.50;;;;;;;-144.57;100.00;62443.72;5053538;28;20102;-65
2023/04/11 03:49:28;;;;;;;;;;;;;;;-144.57;100.00;62443.72;5069962;28;20051;-65
2023/04/11 03:51:55;;;;;;;52.72;30.02;;;;;;;-144.57;100.00;62443.72;5070851;28;19969;-66
2023/04/11 03:54:22;;;;;;;65.22;33.72;;;;;;;-144.57;100.00;62443.72;5070934;28;20068;-63
2023/04/11 03:56:48;;;;;;;50.42;33.33;;;;;;;-144.57;100.00;62443.72;5069608;28;20079;-64
2023/04/11 03:59:19;;;;;;;53.53;33.22;;;;;;;-144.57;100.00;62443.72;5069818;28;20057;-64
2023/04/11 04:02:17;;;;;;;49.05;30.35;;;;;;;-144.57;100.00;62443.72;5049734;28;20056;-65
2023/04/11 04:04:53;;;;;;;;;;;;;;;-144.57;100.00;62443.72;5051563;28;20069;-64
2023/04/11 04:07:28;;;;;;;43.03;26.63;;;;;;;-144.57;100.00;62443.72;5054827;28;19926;-64
2023/04/11 04:10:04;;;;;;;47.10;28.42;;;;;;;-144.57;100.00;62443.72;5069395;28;20048;-65
2023/04/11 04:12:31;;;;;;;48.00;26.77;;;;;;;-144.57;100.00;62443.72;5069693;28;20075;-66
2023/04/11 04:15:10;;;;;;;51.60;30.10;;;;;;;-144.57;100.00;62443.72;5069418;28;20055;-65
2023/04/11 04:17:36;;;;;;;50.17;31.40;;;;;;;-144.57;100.00;62443.72;5069186;28;20036;-65
2023/04/11 04:20:09;;;;;;;52.53;32.93;;;;;;;-144.57;100.00;62443.72;5070282;28;20052;-64
2023/04/11 04:22:36;;;;;;;;;;;;;;;-144.57;100.00;62443.72;5072672;28;20044;-64
2023/04/11 04:25:02;;;;;;;47.58;28.02;;;;;;;-144.57;100.00;62443.72;5056148;28;19924;-64
2023/04/11 04:27:31;;;;;;;33.38;20.75;;;;;;;-144.57;100.00;62443.72;5072909;28;20144;-66
2023/04/11 04:29:57;;;;;;;43.45;27.13;;;;;;;-144.57;100.00;62443.72;5072775;28;20056;-65
2023/04/11 04:32:29;;;;;;;30.48;18.48;;;;;;;-144.57;100.00;62443.72;5072396;28;20126;-65
2023/04/11 04:35:00;;;;;;;47.70;26.35;;;;;;;-144.57;100.00;62443.72;5073263;28;20044;-68
2023/04/11 04:37:38;;;;;;;44.30;26.83;;;;;;;-144.57;100.00;62443.72;5057094;28;20064;-66
2023/04/11 04:40:19;;;;;;;37.35;20.52;;;;;;;-144.57;100.00;62443.72;5058443;28;20088;-66
2023/04/11 04:43:00;;;;;;;31.00;19.95;;;;;;;-144.57;100.00;62443.72;5039366;28;20045;-68
2023/04/11 04:45:41;;;;;;;32.15;21.58;;;;;;;-144.57;100.00;62443.72;5052780;28;20057;-67
2023/04/11 04:48:07;;;;;;;36.83;23.92;;;;;;;-144.57;100.00;62443.72;5054362;28;20048;-67
2023/04/11 04:50:33;;;;;;;35.53;23.77;;;;;;;-144.57;100.00;62443.72;5073845;28;20040;-66
2023/04/11 04:52:59;;;;;;;45.97;30.38;;;;;;;-144.57;100.00;62443.72;5052333;28;20064;-66
2023/04/11 04:55:24;;;;;;;40.30;24.90;;;;;;;-144.57;100.00;62443.72;5069465;28;20544;-67
2023/04/11 04:57:51;;;;;;;64.07;40.15;;;;;;;-144.57;100.00;62443.72;5065938;28;20533;-69
2023/04/11 05:00:17;;;;;;;50.95;36.33;;;;;;;-144.57;100.00;62443.72;5073976;28;20052;-66
2023/04/11 05:02:44;;;;;;;51.50;31.58;;;;;;;-144.57;100.00;62443.72;5068881;28;20040;-66
2023/04/11 05:05:12;;;;;;;37.92;24.75;;;;;;;-144.57;100.00;62443.72;5071224;28;20052;-66
2023/04/11 05:07:38;;;;;;;39.40;23.00;;;;;;;-144.57;100.00;62443.72;5069436;28;20505;-67
2023/04/11 05:10:05;;;;;;;44.38;26.92;;;;;;;-144.57;100.00;62443.72;5071397;28;20064;-69
2023/04/11 05:12:31;;;;;;;43.08;26.25;;;;;;;-144.57;100.00;62443.72;5053396;28;20456;-68
2023/04/11 05:15:03;;;;;;;44.50;27.02;;;;;;;-144.57;100.00;62443.72;5053733;28;20060;-73
2023/04/11 05:17:30;;;;;;;41.13;26.05;;;;;;;-144.57;100.00;62443.72;5046967;28;20036;-67
2023/04/11 05:19:56;;;;;;;42.35;25.52;;;;;;;-144.57;100.00;62443.72;5041373;28;20045;-66
2023/04/11 05:22:23;;;;;;;40.08;24.88;;;;;;;-144.57;100.00;62443.72;5052180;28;20105;-66
2023/04/11 05:24:52;;;;;;;44.28;26.27;;;;;;;-144.57;100.00;62443.72;5051442;28;20493;-67
2023/04/11 05:27:18;;;;;;;44.38;24.75;;;;;;;-144.57;100.00;62443.72;5068307;28;20036;-66
2023/04/11 05:29:44;;;;;;;38.85;24.10;;;;;;;-144.57;100.00;62443.72;5068807;28;20037;-63
2023/04/11 05:32:11;;;;;;;33.38;22.63;;;;;;;-144.57;100.00;62443.72;5068991;28;20036;-66
2023/04/11 05:34:53;;;;;;;39.35;22.75;;;;;;;-144.57;100.00;62443.72;5050606;28;20085;-64
2023/04/11 05:37:25;;;;;;;42.72;24.42;;;;;;;-144.57;100.00;62443.72;5049276;28;20052;-66
2023/04/11 05:39:51;;;;;;;37.90;24.75;;;;;;;-144.57;100.00;62443.72;5048687;28;20051;-64
2023/04/11 05:42:17;;;;;;;45.95;26.15;;;;;;;-144.57;100.00;62443.72;5049467;28;20421;-63
2023/04/11 05:44:43;;;;;;;39.55;26.15;;;;;;;-144.57;100.00;62443.72;5063740;28;20048;-63
2023/04/11 05:47:10;;;;;;;41.55;25.83;;;;;;;-144.57;100.00;62443.72;5070772;28;20037;-65
2023/04/11 05:49:37;;;;;;;47.03;27.90;;;;;;;-144.57;100.00;62443.72;5069414;28;20189;-63
2023/04/11 05:52:03;;;;;;;40.55;27.70;;;;;;;-144.57;100.00;62443.72;5071932;28;20147;-62
2023/04/11 05:54:35;;;;;;;42.53;26.38;;;;;;;-144.57;100.00;62443.72;5032635;28;20102;-64
2023/04/11 05:57:02;;;;;;;41.30;25.55;;;;;;;-144.57;100.00;62443.72;5048929;28;20524;-64
2023/04/11 05:59:31;;;;;;;36.78;23.05;;;;;;;-144.57;100.00;62443.72;5059214;28;20048;-65
2023/04/11 06:01:57;;;;;;;34.55;21.23;;;;;;;-144.57;100.00;62443.72;5068522;28;20043;-64
2023/04/11 06:04:23;;;;;;;33.17;22.00;;;;;;;-144.57;100.00;62443.72;5069728;28;20135;-63
2023/04/11 06:06:50;;;;;;;37.50;24.63;;;;;;;-144.57;100.00;62443.72;5070560;28;20135;-65
2023/04/11 06:09:16;;;;;;;34.90;24.33;;;;;;;-144.57;100.00;62443.72;5070372;28;20045;-64
2023/04/11 06:11:42;;;;;;;35.35;23.63;;;;;;;-144.57;100.00;62443.72;5069086;28;20048;-63
2023/04/11 06:14:08;;;;;;;32.42;22.52;;;;;;;-144.57;100.00;62443.72;5070418;28;20401;-63
2023/04/11 06:16:35;;;;;;;34.55;23.42;;;;;;;-144.57;100.00;62443.72;5060885;28;20040;-64
2023/04/11 06:19:02;;;;;;;43.08;24.70;;;;;;;-144.57;100.00;62443.72;5062016;28;20047;-63
2023/04/11 06:21:28;;;;;;;35.63;24.27;;;;;;;-144.57;100.00;62443.72;5059620;28;20101;-64
2023/04/11 06:23:54;;;;;;;37.03;23.48;;;;;;;-144.57;100.00;62443.72;5061865;28;20029;-62
2023/04/11 06:26:20;;;;;;;35.33;23.95;;;;;;;-144.57;100.00;62443.72;5059535;28;20033;-63
2023/04/11 06:28:45;;;;;;;36.40;25.02;;;;;;;-144.57;100.00;62443.72;5059564;28;20055;-65
2023/04/11 06:31:11;;;;;;;43.28;26.48;;;;;;;-144.57;100.00;62443.72;5058105;28;20037;-63
2023/04/11 06:33:37;;;;;;;39.45;26.35;;;;;;;-144.57;100.00;62443.72;5056826;28;20044;-66
2023/04/11 06:36:03;;;;;;;39.00;25.98;;;;;;;-144.57;100.00;62443.72;5063893;28;20076;-65
2023/04/11 06:38:29;;;;;;;42.22;26.70;;;;;;;-144.57;100.00;62443.72;5059822;28;20079;-64
2023/04/11 06:40:55;;;;;;;36.65;25.88;;;;;;;-144.57;100.00;62443.72;5062467;28;20490;-63
2023/04/11 06:43:21;;;;;;;32.53;25.08;;;;;;;-144.57;100.00;62443.72;5068368;28;20033;-65
2023/04/11 06:45:48;;;;;;;41.25;25.92;;;;;;;-144.57;100.00;62443.72;5068866;28;20055;-65
2023/04/11 06:48:16;;;;;;;39.85;27.15;;;;;;;-144.57;100.00;62443.72;5047806;28;20525;-66
2023/04/11 06:50:44;;;;;;;44.63;27.20;;;;;;;-144.57;100.00;62443.72;5055766;28;20044;-63
2023/04/11 06:53:10;;;;;;;40.92;28.00;;;;;;;-144.57;100.00;62443.72;5069477;28;20142;-64
2023/04/11 06:55:36;;;;;;;41.33;27.38;;;;;;;-144.57;100.00;62443.72;5070057;28;20154;-64
2023/04/11 06:58:01;;;;;;;46.75;27.60;;;;;;;-144.57;100.00;62443.72;5070217;28;20044;-65
2023/04/11 07:00:27;;;;;;;40.08;27.10;;;;;;;-144.57;100.00;62443.72;5069279;28;20094;-65
2023/04/11 07:02:53;;;;;;;44.60;27.42;;;;;;;-144.57;100.00;62443.72;5050924;28;20036;-66
2023/04/11 07:05:18;;;;;;;39.03;25.30;;;;;;;-144.57;100.00;62443.72;5048952;28;20478;-64
2023/04/11 07:07:44;;;;;;;40.60;26.80;;;;;;;-144.57;100.00;62443.72;5066840;28;20138;-65
2023/04/11 07:10:10;;;;;;;35.70;21.67;;;;;;;-144.57;100.00;62443.72;5067954;28;20041;-64
2023/04/11 07:12:36;;;;;;;28.10;18.60;;;;;;;-144.57;100.00;62443.72;5070335;28;20040;-65
2023/04/11 07:15:02;;;;;;;28.67;18.80;;;;;;;-144.57;100.00;62443.72;5067241;28;20040;-64
2023/04/11 07:17:28;;;;;;;29.23;20.23;;;;;;;-144.57;100.00;62443.72;5067997;28;20071;-63
2023/04/11 07:19:54;;;;;;;32.55;21.08;;;;;;;-144.57;100.00;62443.72;5068836;28;20093;-64
2023/04/11 07:22:20;;;;;;;34.45;20.23;;;;;;;-144.57;100.00;62443.72;5030241;28;20060;-66
2023/04/11 07:24:50;;;;;;;30.25;20.30;;;;;;;-144.57;100.00;62443.72;5054013;28;20114;-63
2023/04/11 07:27:16;;;;;;;30.10;20.13;;;;;;;-144.57;100.00;62443.72;5044406;28;20048;-65
2023/04/11 07:29:42;;;;;;;28.77;20.98;;;;;;;-144.57;100.00;62443.72;5051137;28;20684;-65
2023/04/11 07:32:07;;;;;;;30.80;20.48;;;;;;;-144.57;100.00;62443.72;5063499;28;20040;-66
2023/04/11 07:34:33;;;;;;;32.80;20.85;;;;;;;-144.57;100.00;62443.72;5069931;28;20558;-64
2023/04/11 07:36:59;;;;;;;30.10;20.33;;;;;;;-144.57;100.00;62443.72;5070442;28;20069;-65
2023/04/11 07:39:26;;;;;;;38.08;21.15;;;;;;;-144.57;100.00;62443.72;5070237;28;20076;-63
2023/04/11 07:41:53;;;;;;;33.15;21.27;;;;;;;-144.57;100.00;62443.72;5068352;28;20033;-65
2023/04/11 07:44:18;;;;;;;35.00;20.98;;;;;;;-144.57;100.00;62443.72;5051639;28;20044;-65
2023/04/11 07:46:44;;;;;;;29.52;20.90;;;;;;;-144.57;100.00;62443.72;5068809;28;20106;-64
2023/04/11 07:49:10;;;;;;;31.60;21.30;;;;;;;-144.57;100.00;62443.72;5060848;28;20057;-63
2023/04/11 07:51:35;;;;;;;33.08;20.60;;;;;;;-144.57;100.00;62443.72;5057141;28;20135;-63
2023/04/11 07:54:01;;;;;;;29.63;18.63;;;;;;;-144.57;100.00;62443.72;5058978;28;20052;-64
2023/04/11 07:56:27;;;;;;;26.13;18.83;;;;;;;-144.57;100.00;62443.72;5061081;28;20037;-66
2023/04/11 07:58:53;;;;;;;27.73;19.58;;;;;;;-144.57;100.00;62443.72;5058874;28;20033;-64
2023/04/11 08:01:24;;;;;;;27.73;18.45;;;;;;;-144.57;100.00;62443.72;5053924;28;20032;-64
2023/04/11 08:03:52;;;;;;;25.17;17.20;;;;;;;-144.57;100.00;62443.72;5060007;28;20120;-64
2023/04/11 08:06:18;;;;;;;26.63;18.08;;;;;;;-144.57;100.00;62443.72;5063276;28;20127;-63
2023/04/11 08:08:44;;;;;;;26.05;17.70;;;;;;;-144.57;100.00;62443.72;5063745;28;20368;-63
2023/04/11 08:11:10;;;;;;;24.48;17.13;;;;;;;-144.57;100.00;62443.72;5061381;28;20036;-63
2023/04/11 08:13:36;;;;;;;30.20;18.75;;;;;;;-144.57;100.00;62443.72;5058598;28;20047;-63
2023/04/11 08:16:05;;;;;;;24.35;18.20;;;;;;;-144.57;100.00;62443.72;5052884;28;20071;-62
2023/04/11 08:18:31;;;;;;;27.75;18.45;;;;;;;-144.57;100.00;62443.72;5059644;28;20047;-62
2023/04/11 08:20:57;;;;;;;29.45;18.27;;;;;;;-144.57;100.00;62443.72;5072845;28;20075;-62
2023/04/11 08:23:23;;;;;;;24.58;17.58;;;;;;;-144.57;100.00;62443.72;5073632;28;20072;-66
2023/04/11 08:25:49;;;;;;;31.75;19.27;;;;;;;-144.57;100.00;62443.72;5072533;28;20500;-64
2023/04/11 08:28:15;;;;;;;29.88;18.42;;;;;;;-144.57;100.00;62443.72;5071937;28;20028;-62
2023/04/11 08:30:41;;;;;;;25.98;18.73;;;;;;;-144.57;100.00;62443.72;5044129;28;20044;-65
2023/04/11 08:33:08;;;;;;;26.00;17.92;;;;;;;-144.57;100.00;62443.72;5036096;28;20082;-65
2023/04/11 08:35:34;;;;;;;25.80;18.85;;;;;;;-144.57;100.00;62443.72;5059975;28;20044;-64
2023/04/11 08:37:59;;;;;;;34.92;24.08;;;;;;;-144.57;100.00;62443.72;5068061;28;20045;-63
2023/04/11 08:40:27;;;;;;;33.25;20.63;;;;;;;-144.57;100.00;62443.72;5045036;28;20045;-65
2023/04/11 08:42:58;;;;;;;28.90;18.58;;;;;;;-144.57;100.00;62443.72;5060963;28;20147;-64
2023/04/11 08:45:23;;;;;;;31.13;19.77;;;;;;;-144.57;100.00;62443.72;5066506;28;20048;-63
2023/04/11 08:47:49;;;;;;;27.52;17.77;;;;;;;-144.57;100.00;62443.72;5072256;28;20045;-62
2023/04/11 08:50:14;;;;;;;27.25;18.58;;;;;;;-144.57;100.00;62443.72;5073396;28;20051;-62
2023/04/11 08:52:42;;;;;;;27.50;17.75;;;;;;;-144.57;100.00;62443.72;5071869;28;20140;-64
2023/04/11 08:55:09;;;;;;;46.65;19.45;;;;;;;-144.57;100.00;62443.72;5070222;28;20414;-62
2023/04/11 08:57:36;;;;;;;33.50;17.63;;;;;;;-144.57;100.00;62443.72;5051772;28;20291;-63
2023/04/11 09:00:17;;;;;;;23.40;16.85;;;;;;;-144.57;100.00;62443.72;5031643;28;20056;-63
2023/04/11 09:03:03;;;;;;;24.90;16.50;;;;;;;-144.57;100.00;62443.72;5049875;28;20041;-63
2023/04/11 09:05:32;;;;;;;25.75;17.10;;;;;;;-144.57;100.00;62443.72;5061368;28;20776;-64
2023/04/11 09:07:59;;;;;;;20.08;15.27;;;;;;;-144.57;100.00;62443.72;5062661;28;20198;-62
2023/04/11 09:10:26;;;;;;;24.17;15.93;;;;;;;-144.57;100.00;62443.72;5062389;28;20060;-64
2023/04/11 09:12:53;;;;;;;23.50;16.45;;;;;;;-144.57;100.00;62443.72;5072028;28;20045;-63
2023/04/11 09:15:24;;;;;;;26.08;16.83;;;;;;;-144.57;100.00;62443.72;5072105;28;20040;-63
2023/04/11 09:17:51;;;;;;;21.65;16.50;;;;;;;-144.57;100.00;62443.72;5071000;28;20074;-63
2023/04/11 09:20:29;;;;;;;21.65;16.40;;;;;;;-144.57;100.00;62443.72;5072438;28;20557;-63
2023/04/11 09:22:57;;;;;;;27.20;16.88;;;;;;;-144.57;100.00;62443.72;5072842;28;20244;-64
2023/04/11 09:25:23;;;;;;;23.95;16.60;;;;;;;-144.57;100.00;62443.72;5070054;28;20048;-64
2023/04/11 09:27:50;;;;;;;23.48;16.73;;;;;;;-144.57;100.00;62443.72;5072563;28;20174;-65
2023/04/11 09:30:23;;;;;;;24.45;16.63;;;;;;;-144.57;100.00;62443.72;5070082;28;20049;-64
2023/04/11 09:32:53;;;;;;;25.67;17.40;;;;;;;-144.57;100.00;62443.72;5071259;28;20401;-64
2023/04/11 09:35:23;;;;;;;24.73;16.75;;;;;;;-144.57;100.00;62443.72;5072304;28;20044;-64
2023/04/11 09:37:54;;;;;;;66.00;19.92;;;;;;;-144.57;100.00;62443.72;5071787;28;20044;-64
2023/04/11 09:40:22;;;;;;;24.65;17.30;;;;;;;-144.57;100.00;62443.72;5072164;28;20049;-64
2023/04/11 09:42:54;;;;;;;26.67;17.48;;;;;;;-144.57;100.00;62443.72;5073206;28;20044;-63
2023/04/11 09:45:21;;;;;;;27.10;17.02;;;;;;;-144.57;100.00;62443.72;5073100;28;20095;-63
2023/04/11 09:47:49;;;;;;;23.95;16.33;;;;;;;-144.57;100.00;62443.72;5069109;28;20064;-66
2023/04/11 09:50:15;;;;;;;28.70;17.30;;;;;;;-144.57;100.00;62443.72;5072709;28;20198;-66
2023/04/11 09:52:43;;;;;;;28.02;17.30;;;;;;;-144.57;100.00;62443.72;5071513;28;20099;-66
2023/04/11 09:55:19;;;;;;;26.30;16.90;;;;;;;-144.57;100.00;62443.72;5060467;28;20037;-63
2023/04/11 09:57:49;;;;;;;23.23;16.00;;;;;;;-144.57;100.00;62443.72;5015355;28;20099;-65
2023/04/11 10:00:21;;;;;;;27.10;16.20;;;;;;;-144.57;100.00;62443.72;5051198;28;20060;-64
2023/04/11 10:02:52;;;;;;;31.27;17.52;;;;;;;-144.57;100.00;62443.72;5059813;28;20037;-63
2023/04/11 10:05:25;;;;;;;22.77;16.67;;;;;;;-144.57;100.00;62443.72;5068141;28;20051;-64
2023/04/11 10:08:16;;;;;;;26.02;16.05;;;;;;;-144.57;100.00;62443.72;5047141;28;20075;-63
2023/04/11 10:10:43;;;;;;;23.02;15.95;;;;;;;-144.57;100.00;62443.72;5044018;28;20048;-65
2023/04/11 10:13:40;;;;;;;22.00;15.55;;;;;;;-144.57;100.00;62443.72;5069128;28;20522;-64
2023/04/11 10:16:12;;;;;;;21.23;16.25;;;;;;;-144.57;100.00;62443.72;5070308;28;20056;-63
2023/04/11 10:18:53;;;;;;;21.92;16.30;;;;;;;-144.57;100.00;62443.72;5065092;28;20446;-63
2023/04/11 10:21:28;;;;;;;24.35;15.68;;;;;;;-144.57;100.00;62443.72;5050450;28;20196;-63
2023/04/11 10:24:13;;;;;;;22.42;16.10;;;;;;;-144.57;100.00;62443.72;5051306;28;20084;-65
2023/04/11 10:26:50;;;;;;;23.75;15.65;;;;;;;-144.57;100.00;62443.72;5060000;28;20518;-70
2023/04/11 10:29:45;;;;;;;22.08;14.98;;;;;;;-144.57;100.00;62443.72;5042234;28;20049;-64
2023/04/11 10:32:12;;;;;;;22.02;14.48;;;;;;;-144.57;100.00;62443.72;5035129;28;20499;-64
2023/04/11 10:34:40;;;;;;;21.17;14.95;;;;;;;-144.57;100.00;62443.72;5058202;28;20557;-64
2023/04/11 10:37:08;;;;;;;20.02;14.00;;;;;;;-144.57;100.00;62443.72;5037488;28;20505;-64
2023/04/11 10:39:49;;;;;;;21.70;14.40;;;;;;;-144.57;100.00;62443.72;5050382;28;20051;-64
2023/04/11 10:42:28;;;;;;;20.05;14.15;;;;;;;-144.57;100.00;62443.72;5065732;28;20416;-65
2023/04/11 10:45:16;;;;;;;21.13;14.98;;;;;;;-144.57;100.00;62443.72;5067848;28;20037;-67
2023/04/11 10:47:59;;;;;;;30.05;14.50;;;;;;;-144.57;100.00;62443.72;5057603;28;20426;-66
2023/04/11 10:50:25;;;;;;;21.95;14.38;;;;;;;-144.57;100.00;62443.72;5027826;28;20037;-66
2023/04/11 10:52:55;;;;;;;21.92;14.93;;;;;;;-144.57;100.00;62443.72;5071453;28;20651;-66
2023/04/11 10:55:21;;;;;;;;;;;;;;;-144.57;100.00;62443.72;5060566;28;20056;-65
2023/04/11 10:58:02;;;;;;;19.08;13.35;;;;;;;-144.57;100.00;62443.72;5058656;28;19920;-68
2023/04/11 11:00:28;;;;;;;20.13;14.05;;;;;;;-144.57;100.00;62443.72;5059231;28;20079;-66